sensor_id;sensor_type;location;lat;lon;timestamp;P1;durP1;ratioP1;P2;durP2;ratioP2
49241;SDS011;35079;52.704;13.814;2023-01-19T00:01:48;26.40;;;14.00;;
49241;SDS011;35079;52.704;13.814;2023-01-19T00:04:14;25.10;;;13.48;;
49241;SDS011;35079;52.704;13.814;2023-01-19T00:06:39;22.70;;;13.98;;
49241;SDS011;35079;52.704;13.814;2023-01-19T00:09:05;24.23;;;14.00;;
49241;SDS011;35079;52.704;13.814;2023-01-19T00:11:31;26.92;;;14.23;;
49241;SDS011;35079;52.704;13.814;2023-01-19T00:13:56;23.30;;;13.68;;
49241;SDS011;35079;52.704;13.814;2023-01-19T00:16:22;26.58;;;13.88;;
49241;SDS011;35079;52.704;13.814;2023-01-19T00:18:49;28.20;;;14.88;;
49241;SDS011;35079;52.704;13.814;2023-01-19T00:21:16;23.13;;;14.05;;
49241;SDS011;35079;52.704;13.814;2023-01-19T00:23:42;29.38;;;14.45;;
49241;SDS011;35079;52.704;13.814;2023-01-19T00:26:11;32.63;;;13.93;;
49241;SDS011;35079;52.704;13.814;2023-01-19T00:28:40;24.20;;;14.60;;
49241;SDS011;35079;52.704;13.814;2023-01-19T00:31:06;26.08;;;14.48;;
49241;SDS011;35079;52.704;13.814;2023-01-19T00:33:31;24.50;;;14.15;;
49241;SDS011;35079;52.704;13.814;2023-01-19T00:35:57;26.05;;;13.70;;
49241;SDS011;35079;52.704;13.814;2023-01-19T00:38:22;26.05;;;13.65;;
49241;SDS011;35079;52.704;13.814;2023-01-19T00:40:48;26.30;;;13.32;;
49241;SDS011;35079;52.704;13.814;2023-01-19T00:43:14;24.85;;;13.05;;
49241;SDS011;35079;52.704;13.814;2023-01-19T00:45:39;25.60;;;13.43;;
49241;SDS011;35079;52.704;13.814;2023-01-19T00:48:06;24.35;;;13.48;;
49241;SDS011;35079;52.704;13.814;2023-01-19T00:50:32;23.52;;;12.45;;
49241;SDS011;35079;52.704;13.814;2023-01-19T00:52:58;24.42;;;13.48;;
49241;SDS011;35079;52.704;13.814;2023-01-19T00:55:27;24.05;;;13.30;;
49241;SDS011;35079;52.704;13.814;2023-01-19T00:57:54;26.30;;;13.70;;
49241;SDS011;35079;52.704;13.814;2023-01-19T01:00:20;24.23;;;13.25;;
49241;SDS011;35079;52.704;13.814;2023-01-19T01:02:47;25.73;;;13.38;;
49241;SDS011;35079;52.704;13.814;2023-01-19T01:05:14;23.70;;;12.98;;
49241;SDS011;35079;52.704;13.814;2023-01-19T01:07:40;23.00;;;12.90;;
49241;SDS011;35079;52.704;13.814;2023-01-19T01:10:12;26.48;;;13.60;;
49241;SDS011;35079;52.704;13.814;2023-01-19T01:12:39;27.40;;;14.45;;
49241;SDS011;35079;52.704;13.814;2023-01-19T01:15:06;25.02;;;13.23;;
49241;SDS011;35079;52.704;13.814;2023-01-19T01:17:34;26.77;;;13.98;;
49241;SDS011;35079;52.704;13.814;2023-01-19T01:20:01;23.88;;;13.30;;
49241;SDS011;35079;52.704;13.814;2023-01-19T01:22:28;25.05;;;14.00;;
49241;SDS011;35079;52.704;13.814;2023-01-19T01:24:54;26.15;;;13.55;;
49241;SDS011;35079;52.704;13.814;2023-01-19T01:27:20;25.20;;;13.80;;
49241;SDS011;35079;52.704;13.814;2023-01-19T01:29:46;24.98;;;13.38;;
49241;SDS011;35079;52.704;13.814;2023-01-19T01:32:12;26.08;;;12.68;;
49241;SDS011;35079;52.704;13.814;2023-01-19T01:34:38;25.02;;;13.35;;
49241;SDS011;35079;52.704;13.814;2023-01-19T01:37:05;25.30;;;13.15;;
49241;SDS011;35079;52.704;13.814;2023-01-19T01:39:34;26.05;;;13.10;;
49241;SDS011;35079;52.704;13.814;2023-01-19T01:42:00;24.70;;;13.10;;
49241;SDS011;35079;52.704;13.814;2023-01-19T01:50:09;23.70;;;13.15;;
49241;SDS011;35079;52.704;13.814;2023-01-19T01:52:42;25.08;;;12.13;;
49241;SDS011;35079;52.704;13.814;2023-01-19T01:55:13;24.88;;;13.38;;
49241;SDS011;35079;52.704;13.814;2023-01-19T01:57:40;23.10;;;12.40;;
49241;SDS011;35079;52.704;13.814;2023-01-19T02:00:10;27.25;;;12.95;;
49241;SDS011;35079;52.704;13.814;2023-01-19T02:02:36;26.10;;;13.02;;
49241;SDS011;35079;52.704;13.814;2023-01-19T02:10:31;23.00;;;12.20;;
49241;SDS011;35079;52.704;13.814;2023-01-19T02:13:16;22.15;;;13.50;;
49241;SDS011;35079;52.704;13.814;2023-01-19T02:15:46;25.75;;;13.02;;
49241;SDS011;35079;52.704;13.814;2023-01-19T02:18:14;23.63;;;11.68;;
49241;SDS011;35079;52.704;13.814;2023-01-19T02:20:41;23.00;;;12.32;;
49241;SDS011;35079;52.704;13.814;2023-01-19T02:23:19;19.70;;;11.55;;
49241;SDS011;35079;52.704;13.814;2023-01-19T02:26:03;26.38;;;13.10;;
49241;SDS011;35079;52.704;13.814;2023-01-19T02:28:33;22.85;;;11.35;;
49241;SDS011;35079;52.704;13.814;2023-01-19T02:31:00;19.70;;;11.45;;
49241;SDS011;35079;52.704;13.814;2023-01-19T02:33:26;24.77;;;11.30;;
49241;SDS011;35079;52.704;13.814;2023-01-19T02:35:51;22.75;;;12.35;;
49241;SDS011;35079;52.704;13.814;2023-01-19T02:38:19;24.30;;;11.93;;
49241;SDS011;35079;52.704;13.814;2023-01-19T02:40:45;28.42;;;12.02;;
49241;SDS011;35079;52.704;13.814;2023-01-19T02:43:13;24.38;;;11.25;;
49241;SDS011;35079;52.704;13.814;2023-01-19T02:48:44;20.10;;;11.00;;
49241;SDS011;35079;52.704;13.814;2023-01-19T02:59:12;21.70;;;11.45;;
49241;SDS011;35079;52.704;13.814;2023-01-19T03:10:00;16.50;;;9.70;;
49241;SDS011;35079;52.704;13.814;2023-01-19T03:15:47;24.23;;;10.68;;
49241;SDS011;35079;52.704;13.814;2023-01-19T03:18:18;17.63;;;9.60;;
49241;SDS011;35079;52.704;13.814;2023-01-19T03:20:48;20.42;;;10.40;;
49241;SDS011;35079;52.704;13.814;2023-01-19T03:23:17;18.85;;;9.30;;
49241;SDS011;35079;52.704;13.814;2023-01-19T03:25:45;24.73;;;9.57;;
49241;SDS011;35079;52.704;13.814;2023-01-19T03:28:12;24.33;;;11.20;;
49241;SDS011;35079;52.704;13.814;2023-01-19T03:30:44;24.85;;;9.73;;
49241;SDS011;35079;52.704;13.814;2023-01-19T03:33:14;15.75;;;9.15;;
49241;SDS011;35079;52.704;13.814;2023-01-19T03:35:47;15.95;;;9.40;;
49241;SDS011;35079;52.704;13.814;2023-01-19T03:38:17;21.85;;;10.25;;
49241;SDS011;35079;52.704;13.814;2023-01-19T03:40:50;17.33;;;9.60;;
49241;SDS011;35079;52.704;13.814;2023-01-19T03:43:21;20.73;;;9.77;;
49241;SDS011;35079;52.704;13.814;2023-01-19T03:45:49;16.40;;;9.73;;
49241;SDS011;35079;52.704;13.814;2023-01-19T03:48:16;21.20;;;9.75;;
49241;SDS011;35079;52.704;13.814;2023-01-19T03:50:45;18.65;;;10.05;;
49241;SDS011;35079;52.704;13.814;2023-01-19T03:53:12;20.13;;;10.07;;
49241;SDS011;35079;52.704;13.814;2023-01-19T03:55:40;23.00;;;10.85;;
49241;SDS011;35079;52.704;13.814;2023-01-19T03:58:09;16.88;;;9.57;;
49241;SDS011;35079;52.704;13.814;2023-01-19T04:00:34;21.80;;;9.68;;
49241;SDS011;35079;52.704;13.814;2023-01-19T04:03:01;17.75;;;9.85;;
49241;SDS011;35079;52.704;13.814;2023-01-19T04:05:31;15.20;;;9.13;;
49241;SDS011;35079;52.704;13.814;2023-01-19T04:07:57;21.60;;;10.02;;
49241;SDS011;35079;52.704;13.814;2023-01-19T04:10:26;19.80;;;10.15;;
49241;SDS011;35079;52.704;13.814;2023-01-19T04:12:58;19.00;;;10.15;;
49241;SDS011;35079;52.704;13.814;2023-01-19T04:15:24;17.13;;;9.68;;
49241;SDS011;35079;52.704;13.814;2023-01-19T04:17:50;17.67;;;10.98;;
49241;SDS011;35079;52.704;13.814;2023-01-19T04:20:16;23.58;;;11.18;;
49241;SDS011;35079;52.704;13.814;2023-01-19T04:22:42;23.98;;;11.50;;
49241;SDS011;35079;52.704;13.814;2023-01-19T04:25:08;21.02;;;11.18;;
49241;SDS011;35079;52.704;13.814;2023-01-19T04:27:34;25.05;;;12.02;;
49241;SDS011;35079;52.704;13.814;2023-01-19T04:30:00;27.00;;;10.95;;
49241;SDS011;35079;52.704;13.814;2023-01-19T04:32:28;22.13;;;10.88;;
49241;SDS011;35079;52.704;13.814;2023-01-19T04:34:54;23.42;;;10.93;;
49241;SDS011;35079;52.704;13.814;2023-01-19T04:37:19;22.73;;;11.23;;
49241;SDS011;35079;52.704;13.814;2023-01-19T04:39:45;25.25;;;11.20;;
49241;SDS011;35079;52.704;13.814;2023-01-19T04:42:11;21.08;;;10.68;;
49241;SDS011;35079;52.704;13.814;2023-01-19T04:44:37;20.27;;;10.60;;
49241;SDS011;35079;52.704;13.814;2023-01-19T04:47:02;22.23;;;10.75;;
49241;SDS011;35079;52.704;13.814;2023-01-19T04:49:28;19.42;;;10.95;;
49241;SDS011;35079;52.704;13.814;2023-01-19T04:51:53;21.95;;;10.80;;
49241;SDS011;35079;52.704;13.814;2023-01-19T04:54:19;24.00;;;11.55;;
49241;SDS011;35079;52.704;13.814;2023-01-19T04:56:45;22.88;;;10.88;;
49241;SDS011;35079;52.704;13.814;2023-01-19T04:59:11;23.85;;;10.73;;
49241;SDS011;35079;52.704;13.814;2023-01-19T05:01:37;19.85;;;11.32;;
49241;SDS011;35079;52.704;13.814;2023-01-19T05:04:03;22.90;;;11.52;;
49241;SDS011;35079;52.704;13.814;2023-01-19T05:06:31;24.48;;;12.15;;
49241;SDS011;35079;52.704;13.814;2023-01-19T05:08:57;19.42;;;11.35;;
49241;SDS011;35079;52.704;13.814;2023-01-19T05:11:22;28.00;;;11.77;;
49241;SDS011;35079;52.704;13.814;2023-01-19T05:13:48;23.30;;;11.65;;
49241;SDS011;35079;52.704;13.814;2023-01-19T05:16:14;21.50;;;11.15;;
49241;SDS011;35079;52.704;13.814;2023-01-19T05:18:39;22.77;;;11.32;;
49241;SDS011;35079;52.704;13.814;2023-01-19T05:21:05;23.65;;;11.35;;
49241;SDS011;35079;52.704;13.814;2023-01-19T05:23:32;21.63;;;10.63;;
49241;SDS011;35079;52.704;13.814;2023-01-19T05:25:58;17.98;;;10.80;;
49241;SDS011;35079;52.704;13.814;2023-01-19T05:28:26;21.45;;;12.20;;
49241;SDS011;35079;52.704;13.814;2023-01-19T05:30:52;22.27;;;11.43;;
49241;SDS011;35079;52.704;13.814;2023-01-19T05:33:18;21.65;;;11.07;;
49241;SDS011;35079;52.704;13.814;2023-01-19T05:35:45;20.27;;;11.18;;
49241;SDS011;35079;52.704;13.814;2023-01-19T05:38:13;21.27;;;11.10;;
49241;SDS011;35079;52.704;13.814;2023-01-19T05:40:39;23.52;;;12.00;;
49241;SDS011;35079;52.704;13.814;2023-01-19T05:43:04;21.73;;;11.57;;
49241;SDS011;35079;52.704;13.814;2023-01-19T05:45:30;24.00;;;12.38;;
49241;SDS011;35079;52.704;13.814;2023-01-19T05:47:56;22.73;;;11.50;;
49241;SDS011;35079;52.704;13.814;2023-01-19T05:50:22;21.67;;;11.10;;
49241;SDS011;35079;52.704;13.814;2023-01-19T05:52:47;20.42;;;11.90;;
49241;SDS011;35079;52.704;13.814;2023-01-19T05:55:13;21.60;;;11.88;;
49241;SDS011;35079;52.704;13.814;2023-01-19T05:57:40;25.17;;;13.00;;
49241;SDS011;35079;52.704;13.814;2023-01-19T06:00:07;24.40;;;11.57;;
49241;SDS011;35079;52.704;13.814;2023-01-19T06:02:33;26.08;;;12.00;;
49241;SDS011;35079;52.704;13.814;2023-01-19T06:04:58;28.33;;;13.60;;
49241;SDS011;35079;52.704;13.814;2023-01-19T06:07:24;24.85;;;12.00;;
49241;SDS011;35079;52.704;13.814;2023-01-19T06:09:50;24.00;;;12.13;;
49241;SDS011;35079;52.704;13.814;2023-01-19T06:12:15;23.98;;;12.43;;
49241;SDS011;35079;52.704;13.814;2023-01-19T06:14:41;29.27;;;13.50;;
49241;SDS011;35079;52.704;13.814;2023-01-19T06:17:06;20.38;;;11.52;;
49241;SDS011;35079;52.704;13.814;2023-01-19T06:19:32;21.48;;;11.63;;
49241;SDS011;35079;52.704;13.814;2023-01-19T06:21:59;23.65;;;12.05;;
49241;SDS011;35079;52.704;13.814;2023-01-19T06:24:24;24.40;;;11.55;;
49241;SDS011;35079;52.704;13.814;2023-01-19T06:26:51;21.27;;;10.90;;
49241;SDS011;35079;52.704;13.814;2023-01-19T06:29:17;26.10;;;12.40;;
49241;SDS011;35079;52.704;13.814;2023-01-19T06:31:43;27.63;;;12.85;;
49241;SDS011;35079;52.704;13.814;2023-01-19T06:34:09;22.95;;;11.77;;
49241;SDS011;35079;52.704;13.814;2023-01-19T06:36:35;23.48;;;12.73;;
49241;SDS011;35079;52.704;13.814;2023-01-19T06:39:01;25.20;;;12.82;;
49241;SDS011;35079;52.704;13.814;2023-01-19T06:41:29;24.38;;;12.70;;
49241;SDS011;35079;52.704;13.814;2023-01-19T06:43:58;24.25;;;12.32;;
49241;SDS011;35079;52.704;13.814;2023-01-19T06:46:24;23.90;;;11.73;;
49241;SDS011;35079;52.704;13.814;2023-01-19T06:48:50;25.52;;;12.93;;
49241;SDS011;35079;52.704;13.814;2023-01-19T06:51:16;24.83;;;12.15;;
49241;SDS011;35079;52.704;13.814;2023-01-19T06:53:41;23.65;;;12.15;;
49241;SDS011;35079;52.704;13.814;2023-01-19T06:56:07;24.55;;;12.07;;
49241;SDS011;35079;52.704;13.814;2023-01-19T06:58:33;24.58;;;12.88;;
49241;SDS011;35079;52.704;13.814;2023-01-19T07:01:06;24.35;;;12.32;;
49241;SDS011;35079;52.704;13.814;2023-01-19T07:03:32;21.70;;;12.60;;
49241;SDS011;35079;52.704;13.814;2023-01-19T07:05:59;26.27;;;12.80;;
49241;SDS011;35079;52.704;13.814;2023-01-19T07:08:30;25.30;;;12.70;;
49241;SDS011;35079;52.704;13.814;2023-01-19T07:11:00;20.27;;;11.00;;
49241;SDS011;35079;52.704;13.814;2023-01-19T07:13:30;28.33;;;12.23;;
49241;SDS011;35079;52.704;13.814;2023-01-19T07:16:03;23.13;;;11.68;;
49241;SDS011;35079;52.704;13.814;2023-01-19T07:18:33;22.85;;;11.65;;
49241;SDS011;35079;52.704;13.814;2023-01-19T07:20:59;22.25;;;11.45;;
49241;SDS011;35079;52.704;13.814;2023-01-19T07:23:25;21.27;;;11.90;;
49241;SDS011;35079;52.704;13.814;2023-01-19T07:25:54;24.60;;;12.10;;
49241;SDS011;35079;52.704;13.814;2023-01-19T07:28:22;23.00;;;12.27;;
49241;SDS011;35079;52.704;13.814;2023-01-19T07:30:52;26.48;;;12.38;;
49241;SDS011;35079;52.704;13.814;2023-01-19T07:33:18;22.70;;;12.10;;
49241;SDS011;35079;52.704;13.814;2023-01-19T07:35:46;22.50;;;12.15;;
49241;SDS011;35079;52.704;13.814;2023-01-19T07:38:13;23.08;;;12.13;;
49241;SDS011;35079;52.704;13.814;2023-01-19T07:40:40;22.65;;;11.80;;
49241;SDS011;35079;52.704;13.814;2023-01-19T07:43:05;22.88;;;13.50;;
49241;SDS011;35079;52.704;13.814;2023-01-19T07:45:31;20.98;;;11.50;;
49241;SDS011;35079;52.704;13.814;2023-01-19T07:47:57;24.10;;;12.20;;
49241;SDS011;35079;52.704;13.814;2023-01-19T07:50:22;23.52;;;11.95;;
49241;SDS011;35079;52.704;13.814;2023-01-19T07:52:50;23.77;;;11.50;;
49241;SDS011;35079;52.704;13.814;2023-01-19T07:55:18;22.73;;;11.32;;
49241;SDS011;35079;52.704;13.814;2023-01-19T07:57:46;18.83;;;10.63;;
49241;SDS011;35079;52.704;13.814;2023-01-19T08:00:15;20.52;;;11.00;;
49241;SDS011;35079;52.704;13.814;2023-01-19T08:02:43;17.80;;;11.00;;
49241;SDS011;35079;52.704;13.814;2023-01-19T08:05:09;17.13;;;10.40;;
49241;SDS011;35079;52.704;13.814;2023-01-19T08:07:35;18.05;;;10.68;;
49241;SDS011;35079;52.704;13.814;2023-01-19T08:10:00;19.92;;;11.43;;
49241;SDS011;35079;52.704;13.814;2023-01-19T08:12:26;17.40;;;9.73;;
49241;SDS011;35079;52.704;13.814;2023-01-19T08:14:52;16.88;;;9.90;;
49241;SDS011;35079;52.704;13.814;2023-01-19T08:17:17;19.00;;;11.15;;
49241;SDS011;35079;52.704;13.814;2023-01-19T08:19:43;19.13;;;10.23;;
49241;SDS011;35079;52.704;13.814;2023-01-19T08:22:09;17.35;;;10.07;;
49241;SDS011;35079;52.704;13.814;2023-01-19T08:24:34;25.17;;;9.95;;
49241;SDS011;35079;52.704;13.814;2023-01-19T08:27:00;19.20;;;10.27;;
49241;SDS011;35079;52.704;13.814;2023-01-19T08:29:27;20.02;;;10.10;;
49241;SDS011;35079;52.704;13.814;2023-01-19T08:31:57;20.55;;;10.45;;
49241;SDS011;35079;52.704;13.814;2023-01-19T08:34:25;18.50;;;10.13;;
49241;SDS011;35079;52.704;13.814;2023-01-19T08:36:51;19.45;;;10.13;;
49241;SDS011;35079;52.704;13.814;2023-01-19T08:39:17;18.70;;;10.45;;
49241;SDS011;35079;52.704;13.814;2023-01-19T08:41:43;16.48;;;9.35;;
49241;SDS011;35079;52.704;13.814;2023-01-19T08:44:09;19.05;;;10.27;;
49241;SDS011;35079;52.704;13.814;2023-01-19T08:46:35;19.38;;;9.63;;
49241;SDS011;35079;52.704;13.814;2023-01-19T08:49:00;19.75;;;10.55;;
49241;SDS011;35079;52.704;13.814;2023-01-19T08:51:26;15.50;;;9.80;;
49241;SDS011;35079;52.704;13.814;2023-01-19T08:53:51;17.25;;;10.00;;
49241;SDS011;35079;52.704;13.814;2023-01-19T08:56:17;15.48;;;9.23;;
49241;SDS011;35079;52.704;13.814;2023-01-19T08:58:44;21.52;;;10.45;;
49241;SDS011;35079;52.704;13.814;2023-01-19T09:01:10;16.42;;;8.82;;
49241;SDS011;35079;52.704;13.814;2023-01-19T09:03:40;15.23;;;9.63;;
49241;SDS011;35079;52.704;13.814;2023-01-19T09:06:07;16.40;;;10.05;;
49241;SDS011;35079;52.704;13.814;2023-01-19T09:08:33;14.48;;;8.10;;
49241;SDS011;35079;52.704;13.814;2023-01-19T09:10:59;18.33;;;10.07;;
49241;SDS011;35079;52.704;13.814;2023-01-19T09:13:25;16.75;;;10.02;;
49241;SDS011;35079;52.704;13.814;2023-01-19T09:15:51;17.25;;;9.52;;
49241;SDS011;35079;52.704;13.814;2023-01-19T09:18:18;18.88;;;9.02;;
49241;SDS011;35079;52.704;13.814;2023-01-19T09:20:46;16.60;;;9.90;;
49241;SDS011;35079;52.704;13.814;2023-01-19T09:23:13;15.75;;;9.35;;
49241;SDS011;35079;52.704;13.814;2023-01-19T09:25:41;15.18;;;8.82;;
49241;SDS011;35079;52.704;13.814;2023-01-19T09:31:07;14.90;;;8.85;;
49241;SDS011;35079;52.704;13.814;2023-01-19T09:33:33;16.33;;;9.40;;
49241;SDS011;35079;52.704;13.814;2023-01-19T09:35:59;15.63;;;10.32;;
49241;SDS011;35079;52.704;13.814;2023-01-19T09:38:26;17.30;;;9.63;;
49241;SDS011;35079;52.704;13.814;2023-01-19T09:40:55;15.25;;;9.63;;
49241;SDS011;35079;52.704;13.814;2023-01-19T09:43:38;12.98;;;9.40;;
49241;SDS011;35079;52.704;13.814;2023-01-19T09:46:53;16.42;;;9.00;;
49241;SDS011;35079;52.704;13.814;2023-01-19T09:49:14;15.93;;;8.70;;
49241;SDS011;35079;52.704;13.814;2023-01-19T09:51:46;14.07;;;8.93;;
49241;SDS011;35079;52.704;13.814;2023-01-19T09:56:46;11.82;;;8.07;;
49241;SDS011;35079;52.704;13.814;2023-01-19T09:59:18;13.75;;;8.07;;
49241;SDS011;35079;52.704;13.814;2023-01-19T10:04:25;12.48;;;8.00;;
49241;SDS011;35079;52.704;13.814;2023-01-19T10:10:16;12.30;;;8.55;;
49241;SDS011;35079;52.704;13.814;2023-01-19T10:20:43;13.55;;;8.85;;
49241;SDS011;35079;52.704;13.814;2023-01-19T10:23:24;12.32;;;8.10;;
49241;SDS011;35079;52.704;13.814;2023-01-19T10:26:00;12.38;;;8.40;;
49241;SDS011;35079;52.704;13.814;2023-01-19T10:28:32;14.05;;;8.00;;
49241;SDS011;35079;52.704;13.814;2023-01-19T10:30:57;12.45;;;8.43;;
49241;SDS011;35079;52.704;13.814;2023-01-19T10:33:24;12.32;;;8.10;;
49241;SDS011;35079;52.704;13.814;2023-01-19T10:35:49;10.10;;;7.93;;
49241;SDS011;35079;52.704;13.814;2023-01-19T10:38:15;13.00;;;8.30;;
49241;SDS011;35079;52.704;13.814;2023-01-19T10:40:48;12.77;;;8.73;;
49241;SDS011;35079;52.704;13.814;2023-01-19T10:46:20;11.75;;;7.28;;
49241;SDS011;35079;52.704;13.814;2023-01-19T10:49:04;12.10;;;7.38;;
49241;SDS011;35079;52.704;13.814;2023-01-19T10:51:30;11.38;;;6.90;;
49241;SDS011;35079;52.704;13.814;2023-01-19T10:54:02;12.98;;;7.60;;
49241;SDS011;35079;52.704;13.814;2023-01-19T10:58:57;11.50;;;7.32;;
49241;SDS011;35079;52.704;13.814;2023-01-19T11:01:25;9.27;;;6.85;;
49241;SDS011;35079;52.704;13.814;2023-01-19T11:03:52;11.27;;;7.35;;
49241;SDS011;35079;52.704;13.814;2023-01-19T11:06:26;13.52;;;8.25;;
49241;SDS011;35079;52.704;13.814;2023-01-19T11:09:07;14.13;;;7.22;;
49241;SDS011;35079;52.704;13.814;2023-01-19T11:11:50;9.43;;;6.93;;
49241;SDS011;35079;52.704;13.814;2023-01-19T11:14:19;11.82;;;7.35;;
49241;SDS011;35079;52.704;13.814;2023-01-19T11:16:49;10.10;;;7.40;;
49241;SDS011;35079;52.704;13.814;2023-01-19T11:19:28;11.68;;;7.93;;
49241;SDS011;35079;52.704;13.814;2023-01-19T11:24:40;12.63;;;7.63;;
49241;SDS011;35079;52.704;13.814;2023-01-19T11:27:22;12.45;;;7.30;;
49241;SDS011;35079;52.704;13.814;2023-01-19T11:30:15;11.25;;;7.47;;
49241;SDS011;35079;52.704;13.814;2023-01-19T11:32:46;10.38;;;7.63;;
49241;SDS011;35079;52.704;13.814;2023-01-19T11:35:30;12.10;;;7.70;;
49241;SDS011;35079;52.704;13.814;2023-01-19T11:40:51;12.40;;;7.70;;
49241;SDS011;35079;52.704;13.814;2023-01-19T11:43:20;11.30;;;7.72;;
49241;SDS011;35079;52.704;13.814;2023-01-19T11:45:47;13.73;;;7.10;;
49241;SDS011;35079;52.704;13.814;2023-01-19T11:48:48;12.95;;;7.32;;
49241;SDS011;35079;52.704;13.814;2023-01-19T11:51:44;12.07;;;7.75;;
49241;SDS011;35079;52.704;13.814;2023-01-19T11:54:28;11.95;;;7.57;;
49241;SDS011;35079;52.704;13.814;2023-01-19T11:56:57;10.13;;;7.40;;
49241;SDS011;35079;52.704;13.814;2023-01-19T11:59:28;14.25;;;8.30;;
49241;SDS011;35079;52.704;13.814;2023-01-19T12:01:55;13.05;;;8.20;;
49241;SDS011;35079;52.704;13.814;2023-01-19T12:04:28;13.50;;;8.55;;
49241;SDS011;35079;52.704;13.814;2023-01-19T12:06:57;10.80;;;7.60;;
49241;SDS011;35079;52.704;13.814;2023-01-19T12:09:29;11.70;;;7.45;;
49241;SDS011;35079;52.704;13.814;2023-01-19T12:12:00;13.10;;;8.13;;
49241;SDS011;35079;52.704;13.814;2023-01-19T12:17:27;8.43;;;6.78;;
49241;SDS011;35079;52.704;13.814;2023-01-19T12:31:46;8.45;;;6.03;;
49241;SDS011;35079;52.704;13.814;2023-01-19T12:43:12;15.13;;;7.78;;
49241;SDS011;35079;52.704;13.814;2023-01-19T12:45:38;11.82;;;7.80;;
49241;SDS011;35079;52.704;13.814;2023-01-19T12:48:04;10.23;;;7.30;;
49241;SDS011;35079;52.704;13.814;2023-01-19T12:50:47;12.05;;;7.78;;
49241;SDS011;35079;52.704;13.814;2023-01-19T12:53:17;12.98;;;8.27;;
49241;SDS011;35079;52.704;13.814;2023-01-19T12:55:55;14.18;;;8.57;;
49241;SDS011;35079;52.704;13.814;2023-01-19T12:58:23;14.77;;;8.95;;
49241;SDS011;35079;52.704;13.814;2023-01-19T13:01:10;13.15;;;8.90;;
49241;SDS011;35079;52.704;13.814;2023-01-19T13:03:44;14.38;;;9.77;;
49241;SDS011;35079;52.704;13.814;2023-01-19T13:06:10;17.25;;;10.35;;
49241;SDS011;35079;52.704;13.814;2023-01-19T13:09:36;14.68;;;8.70;;
49241;SDS011;35079;52.704;13.814;2023-01-19T13:14:38;11.32;;;7.97;;
49241;SDS011;35079;52.704;13.814;2023-01-19T13:22:49;16.77;;;8.88;;
49241;SDS011;35079;52.704;13.814;2023-01-19T13:25:37;15.70;;;9.80;;
49241;SDS011;35079;52.704;13.814;2023-01-19T13:28:05;17.05;;;9.68;;
49241;SDS011;35079;52.704;13.814;2023-01-19T13:30:33;13.45;;;9.18;;
49241;SDS011;35079;52.704;13.814;2023-01-19T13:33:03;20.10;;;10.23;;
49241;SDS011;35079;52.704;13.814;2023-01-19T13:35:47;17.30;;;9.98;;
49241;SDS011;35079;52.704;13.814;2023-01-19T13:38:23;18.58;;;10.00;;
49241;SDS011;35079;52.704;13.814;2023-01-19T13:40:50;17.40;;;10.15;;
49241;SDS011;35079;52.704;13.814;2023-01-19T13:43:20;18.05;;;10.27;;
49241;SDS011;35079;52.704;13.814;2023-01-19T13:45:54;18.60;;;10.60;;
49241;SDS011;35079;52.704;13.814;2023-01-19T13:48:21;16.10;;;10.38;;
49241;SDS011;35079;52.704;13.814;2023-01-19T13:50:55;16.25;;;10.15;;
49241;SDS011;35079;52.704;13.814;2023-01-19T13:53:24;16.65;;;10.80;;
49241;SDS011;35079;52.704;13.814;2023-01-19T13:56:14;16.63;;;10.05;;
49241;SDS011;35079;52.704;13.814;2023-01-19T13:58:56;18.23;;;10.70;;
49241;SDS011;35079;52.704;13.814;2023-01-19T14:01:41;15.70;;;10.10;;
49241;SDS011;35079;52.704;13.814;2023-01-19T14:04:27;16.83;;;10.07;;
49241;SDS011;35079;52.704;13.814;2023-01-19T14:07:17;15.80;;;10.00;;
49241;SDS011;35079;52.704;13.814;2023-01-19T14:10:04;14.25;;;9.60;;
49241;SDS011;35079;52.704;13.814;2023-01-19T14:12:31;18.10;;;10.48;;
49241;SDS011;35079;52.704;13.814;2023-01-19T14:14:57;14.63;;;10.02;;
49241;SDS011;35079;52.704;13.814;2023-01-19T14:19:55;17.70;;;10.95;;
49241;SDS011;35079;52.704;13.814;2023-01-19T14:22:55;17.38;;;10.68;;
49241;SDS011;35079;52.704;13.814;2023-01-19T14:25:31;20.02;;;10.73;;
49241;SDS011;35079;52.704;13.814;2023-01-19T14:31:19;21.35;;;10.95;;
49241;SDS011;35079;52.704;13.814;2023-01-19T14:33:55;18.00;;;11.05;;
49241;SDS011;35079;52.704;13.814;2023-01-19T14:39:03;17.00;;;10.80;;
49241;SDS011;35079;52.704;13.814;2023-01-19T14:41:36;18.30;;;10.77;;
49241;SDS011;35079;52.704;13.814;2023-01-19T14:44:09;18.25;;;10.40;;
49241;SDS011;35079;52.704;13.814;2023-01-19T14:46:43;20.45;;;10.98;;
49241;SDS011;35079;52.704;13.814;2023-01-19T14:49:16;18.88;;;10.90;;
49241;SDS011;35079;52.704;13.814;2023-01-19T14:51:48;16.98;;;11.30;;
49241;SDS011;35079;52.704;13.814;2023-01-19T14:54:15;19.08;;;11.38;;
49241;SDS011;35079;52.704;13.814;2023-01-19T14:56:48;18.27;;;11.82;;
49241;SDS011;35079;52.704;13.814;2023-01-19T14:59:17;17.80;;;11.05;;
49241;SDS011;35079;52.704;13.814;2023-01-19T15:01:42;18.23;;;11.38;;
49241;SDS011;35079;52.704;13.814;2023-01-19T15:04:08;17.17;;;10.57;;
49241;SDS011;35079;52.704;13.814;2023-01-19T15:06:34;18.58;;;10.65;;
49241;SDS011;35079;52.704;13.814;2023-01-19T15:09:05;18.27;;;10.68;;
49241;SDS011;35079;52.704;13.814;2023-01-19T15:11:33;19.27;;;10.88;;
49241;SDS011;35079;52.704;13.814;2023-01-19T15:14:00;17.08;;;10.38;;
49241;SDS011;35079;52.704;13.814;2023-01-19T15:16:27;17.33;;;10.05;;
49241;SDS011;35079;52.704;13.814;2023-01-19T15:18:54;17.40;;;9.80;;
49241;SDS011;35079;52.704;13.814;2023-01-19T15:21:20;22.85;;;11.35;;
49241;SDS011;35079;52.704;13.814;2023-01-19T15:23:50;17.35;;;10.63;;
49241;SDS011;35079;52.704;13.814;2023-01-19T15:26:19;16.05;;;9.93;;
49241;SDS011;35079;52.704;13.814;2023-01-19T15:28:47;17.95;;;10.52;;
49241;SDS011;35079;52.704;13.814;2023-01-19T15:31:14;16.08;;;10.27;;
49241;SDS011;35079;52.704;13.814;2023-01-19T15:33:41;19.25;;;11.05;;
49241;SDS011;35079;52.704;13.814;2023-01-19T15:36:11;17.20;;;11.02;;
49241;SDS011;35079;52.704;13.814;2023-01-19T15:38:41;19.73;;;11.82;;
49241;SDS011;35079;52.704;13.814;2023-01-19T15:41:11;19.13;;;11.30;;
49241;SDS011;35079;52.704;13.814;2023-01-19T15:43:38;17.90;;;10.77;;
49241;SDS011;35079;52.704;13.814;2023-01-19T15:46:05;21.20;;;12.25;;
49241;SDS011;35079;52.704;13.814;2023-01-19T15:48:31;21.63;;;12.20;;
49241;SDS011;35079;52.704;13.814;2023-01-19T15:50:56;20.48;;;11.50;;
49241;SDS011;35079;52.704;13.814;2023-01-19T15:53:22;18.98;;;11.63;;
49241;SDS011;35079;52.704;13.814;2023-01-19T15:55:49;17.35;;;10.95;;
49241;SDS011;35079;52.704;13.814;2023-01-19T15:58:16;20.75;;;11.50;;
49241;SDS011;35079;52.704;13.814;2023-01-19T16:00:44;19.50;;;11.05;;
49241;SDS011;35079;52.704;13.814;2023-01-19T16:03:16;23.50;;;11.65;;
49241;SDS011;35079;52.704;13.814;2023-01-19T16:05:42;19.27;;;12.23;;
49241;SDS011;35079;52.704;13.814;2023-01-19T16:08:08;20.38;;;11.65;;
49241;SDS011;35079;52.704;13.814;2023-01-19T16:10:38;18.40;;;11.68;;